Empire, Michigan
Current Conditions -  °F | °C
As of 2:36 AM on Saturday 25 Oct 2014 (Local Time) from KFKS Reporting Station
Overcast Overcast  
Wind Chill: 55°   Ceiling: 2300
Heat Index: 55°   Visibility: 7mi
Dew Point: 49°   Wind: 12mph
Humidity: 79%   Direction: 210°SSW
Pressure: 29.8"   Gusts: 20mph
Location:  44.81°N, 86.06°W
Report Text: KFKS 250636Z AUTO 21010G17KT 7SM OVC023 13/09 A2980 RMK AO2 T01280092
Loading
Personal Weather Stations






























Interactive Weather Map
Tropical Storm Tracking
New forecast layout! Learn more

10-Day Weather Forecast

Advertisements
Track Severe Weather on mobile